sensor_id;sensor_type;location;lat;lon;timestamp;temperature;humidity
48604;DHT22;32708;51.212;6.788;2022-12-11T00:00:49;1.80;99.90
48604;DHT22;32708;51.212;6.788;2022-12-11T00:03:16;1.80;99.90
48604;DHT22;32708;51.212;6.788;2022-12-11T00:05:44;1.70;99.90
48604;DHT22;32708;51.212;6.788;2022-12-11T00:08:12;2.00;99.90
48604;DHT22;32708;51.212;6.788;2022-12-11T00:10:38;1.70;99.90
48604;DHT22;32708;51.212;6.788;2022-12-11T00:13:04;1.70;99.90
48604;DHT22;32708;51.212;6.788;2022-12-11T00:15:31;1.80;99.90
48604;DHT22;32708;51.212;6.788;2022-12-11T00:17:58;1.90;99.90
48604;DHT22;32708;51.212;6.788;2022-12-11T00:20:24;2.10;99.90
48604;DHT22;32708;51.212;6.788;2022-12-11T00:22:52;2.00;99.90
48604;DHT22;32708;51.212;6.788;2022-12-11T00:25:19;2.00;99.90
48604;DHT22;32708;51.212;6.788;2022-12-11T00:27:45;2.00;99.90
48604;DHT22;32708;51.212;6.788;2022-12-11T00:30:13;1.90;99.90
48604;DHT22;32708;51.212;6.788;2022-12-11T00:32:39;1.80;99.90
48604;DHT22;32708;51.212;6.788;2022-12-11T00:35:06;1.80;99.90
48604;DHT22;32708;51.212;6.788;2022-12-11T00:37:32;1.80;99.90
48604;DHT22;32708;51.212;6.788;2022-12-11T00:39:59;1.80;99.90
48604;DHT22;32708;51.212;6.788;2022-12-11T00:42:25;1.80;99.90
48604;DHT22;32708;51.212;6.788;2022-12-11T00:44:53;1.80;99.90
48604;DHT22;32708;51.212;6.788;2022-12-11T00:47:22;1.90;99.90
48604;DHT22;32708;51.212;6.788;2022-12-11T00:49:48;1.90;99.90
48604;DHT22;32708;51.212;6.788;2022-12-11T00:52:14;1.90;99.90
48604;DHT22;32708;51.212;6.788;2022-12-11T00:54:42;1.80;99.90
48604;DHT22;32708;51.212;6.788;2022-12-11T00:57:08;1.90;99.90
48604;DHT22;32708;51.212;6.788;2022-12-11T00:59:34;1.80;99.90
48604;DHT22;32708;51.212;6.788;2022-12-11T01:02:01;2.10;99.90
48604;DHT22;32708;51.212;6.788;2022-12-11T01:04:27;2.10;99.90
48604;DHT22;32708;51.212;6.788;2022-12-11T01:06:53;1.90;99.90
48604;DHT22;32708;51.212;6.788;2022-12-11T01:09:19;1.80;99.90
48604;DHT22;32708;51.212;6.788;2022-12-11T01:12:06;1.80;99.90
48604;DHT22;32708;51.212;6.788;2022-12-11T01:14:33;1.90;99.90
48604;DHT22;32708;51.212;6.788;2022-12-11T01:16:59;2.00;99.90
48604;DHT22;32708;51.212;6.788;2022-12-11T01:19:26;2.00;99.90
48604;DHT22;32708;51.212;6.788;2022-12-11T01:21:52;1.80;99.90
48604;DHT22;32708;51.212;6.788;2022-12-11T01:24:18;1.80;99.90
48604;DHT22;32708;51.212;6.788;2022-12-11T01:26:44;1.80;99.90
48604;DHT22;32708;51.212;6.788;2022-12-11T01:29:11;2.00;99.90
48604;DHT22;32708;51.212;6.788;2022-12-11T01:31:37;1.80;99.90
48604;DHT22;32708;51.212;6.788;2022-12-11T01:34:07;1.80;99.90
48604;DHT22;32708;51.212;6.788;2022-12-11T01:36:34;2.00;99.90
48604;DHT22;32708;51.212;6.788;2022-12-11T01:39:00;1.80;99.90
48604;DHT22;32708;51.212;6.788;2022-12-11T01:41:26;1.90;99.90
48604;DHT22;32708;51.212;6.788;2022-12-11T01:47:00;1.90;99.90
48604;DHT22;32708;51.212;6.788;2022-12-11T01:49:28;1.90;99.90
48604;DHT22;32708;51.212;6.788;2022-12-11T01:52:00;1.70;99.90
48604;DHT22;32708;51.212;6.788;2022-12-11T01:54:33;1.70;99.90
48604;DHT22;32708;51.212;6.788;2022-12-11T01:57:04;1.80;99.90
48604;DHT22;32708;51.212;6.788;2022-12-11T01:59:37;1.70;99.90
48604;DHT22;32708;51.212;6.788;2022-12-11T02:02:10;1.70;99.90
48604;DHT22;32708;51.212;6.788;2022-12-11T02:04:43;1.70;99.90
48604;DHT22;32708;51.212;6.788;2022-12-11T02:07:11;1.90;99.90
48604;DHT22;32708;51.212;6.788;2022-12-11T02:09:41;1.70;99.90
48604;DHT22;32708;51.212;6.788;2022-12-11T02:15:16;1.80;99.90
48604;DHT22;32708;51.212;6.788;2022-12-11T02:20:51;1.80;99.90
48604;DHT22;32708;51.212;6.788;2022-12-11T02:27:53;1.80;99.90
48604;DHT22;32708;51.212;6.788;2022-12-11T02:30:12;1.90;99.90
48604;DHT22;32708;51.212;6.788;2022-12-11T02:32:54;1.90;99.90
48604;DHT22;32708;51.212;6.788;2022-12-11T02:38:21;1.90;99.90
48604;DHT22;32708;51.212;6.788;2022-12-11T02:40:57;1.90;99.90
48604;DHT22;32708;51.212;6.788;2022-12-11T02:43:26;1.80;99.90
48604;DHT22;32708;51.212;6.788;2022-12-11T02:45:59;1.70;99.90
48604;DHT22;32708;51.212;6.788;2022-12-11T02:48:31;1.80;99.90
48604;DHT22;32708;51.212;6.788;2022-12-11T02:51:02;2.20;99.90
48604;DHT22;32708;51.212;6.788;2022-12-11T02:53:36;1.90;99.90
48604;DHT22;32708;51.212;6.788;2022-12-11T02:56:13;1.90;99.90
48604;DHT22;32708;51.212;6.788;2022-12-11T02:59:05;1.80;99.90
48604;DHT22;32708;51.212;6.788;2022-12-11T03:01:36;1.60;99.90
48604;DHT22;32708;51.212;6.788;2022-12-11T03:04:02;1.70;99.90
48604;DHT22;32708;51.212;6.788;2022-12-11T03:06:35;1.70;99.90
48604;DHT22;32708;51.212;6.788;2022-12-11T03:09:06;1.60;99.90
48604;DHT22;32708;51.212;6.788;2022-12-11T03:11:32;1.70;99.90
48604;DHT22;32708;51.212;6.788;2022-12-11T03:14:00;1.80;99.90
48604;DHT22;32708;51.212;6.788;2022-12-11T03:16:41;1.80;99.90
48604;DHT22;32708;51.212;6.788;2022-12-11T03:19:54;1.90;99.90
48604;DHT22;32708;51.212;6.788;2022-12-11T03:22:57;1.80;99.90
48604;DHT22;32708;51.212;6.788;2022-12-11T03:25:43;2.00;99.90
48604;DHT22;32708;51.212;6.788;2022-12-11T03:28:32;2.00;99.90
48604;DHT22;32708;51.212;6.788;2022-12-11T03:31:24;2.00;99.90
48604;DHT22;32708;51.212;6.788;2022-12-11T03:37:15;2.00;99.90
48604;DHT22;32708;51.212;6.788;2022-12-11T03:39:49;2.00;99.90
48604;DHT22;32708;51.212;6.788;2022-12-11T03:42:21;2.00;99.90
48604;DHT22;32708;51.212;6.788;2022-12-11T03:44:53;2.00;99.90
48604;DHT22;32708;51.212;6.788;2022-12-11T03:47:24;2.00;99.90
48604;DHT22;32708;51.212;6.788;2022-12-11T03:49:55;2.00;99.90
48604;DHT22;32708;51.212;6.788;2022-12-11T03:52:26;1.90;99.90
48604;DHT22;32708;51.212;6.788;2022-12-11T03:54:58;2.00;99.90
48604;DHT22;32708;51.212;6.788;2022-12-11T03:57:35;1.90;99.90
48604;DHT22;32708;51.212;6.788;2022-12-11T04:00:09;1.90;99.90
48604;DHT22;32708;51.212;6.788;2022-12-11T04:02:39;2.00;99.90
48604;DHT22;32708;51.212;6.788;2022-12-11T04:05:07;2.00;99.90
48604;DHT22;32708;51.212;6.788;2022-12-11T04:07:33;2.00;99.90
48604;DHT22;32708;51.212;6.788;2022-12-11T04:10:00;2.10;99.90
48604;DHT22;32708;51.212;6.788;2022-12-11T04:12:27;2.10;99.90
48604;DHT22;32708;51.212;6.788;2022-12-11T04:14:54;2.10;99.90
48604;DHT22;32708;51.212;6.788;2022-12-11T04:17:34;2.00;99.90
48604;DHT22;32708;51.212;6.788;2022-12-11T04:20:20;2.10;99.90
48604;DHT22;32708;51.212;6.788;2022-12-11T04:23:17;2.10;99.90
48604;DHT22;32708;51.212;6.788;2022-12-11T04:26:13;1.90;99.90
48604;DHT22;32708;51.212;6.788;2022-12-11T04:28:46;1.80;99.90
48604;DHT22;32708;51.212;6.788;2022-12-11T04:31:16;1.80;99.90
48604;DHT22;32708;51.212;6.788;2022-12-11T04:33:54;1.70;99.90
48604;DHT22;32708;51.212;6.788;2022-12-11T04:36:20;1.80;99.90
48604;DHT22;32708;51.212;6.788;2022-12-11T04:38:46;1.80;99.90
48604;DHT22;32708;51.212;6.788;2022-12-11T04:41:14;1.90;99.90
48604;DHT22;32708;51.212;6.788;2022-12-11T04:43:42;1.90;99.90
48604;DHT22;32708;51.212;6.788;2022-12-11T04:46:15;1.90;99.90
48604;DHT22;32708;51.212;6.788;2022-12-11T04:48:45;1.90;99.90
48604;DHT22;32708;51.212;6.788;2022-12-11T04:51:13;1.90;99.90
48604;DHT22;32708;51.212;6.788;2022-12-11T04:53:41;2.10;99.90
48604;DHT22;32708;51.212;6.788;2022-12-11T04:56:11;2.00;99.90
48604;DHT22;32708;51.212;6.788;2022-12-11T04:58:42;1.90;99.90
48604;DHT22;32708;51.212;6.788;2022-12-11T05:01:12;2.00;99.90
48604;DHT22;32708;51.212;6.788;2022-12-11T05:03:41;1.90;99.90
48604;DHT22;32708;51.212;6.788;2022-12-11T05:06:09;1.90;99.90
48604;DHT22;32708;51.212;6.788;2022-12-11T05:08:38;2.00;99.90
48604;DHT22;32708;51.212;6.788;2022-12-11T05:11:08;2.10;99.90
48604;DHT22;32708;51.212;6.788;2022-12-11T05:13:36;2.00;99.90
48604;DHT22;32708;51.212;6.788;2022-12-11T05:16:05;2.20;99.90
48604;DHT22;32708;51.212;6.788;2022-12-11T05:18:35;1.90;99.90
48604;DHT22;32708;51.212;6.788;2022-12-11T05:21:11;1.90;99.90
48604;DHT22;32708;51.212;6.788;2022-12-11T05:23:40;1.80;99.90
48604;DHT22;32708;51.212;6.788;2022-12-11T05:26:11;2.00;99.90
48604;DHT22;32708;51.212;6.788;2022-12-11T05:28:40;2.10;99.90
48604;DHT22;32708;51.212;6.788;2022-12-11T05:31:12;2.10;99.90
48604;DHT22;32708;51.212;6.788;2022-12-11T05:33:43;2.10;99.90
48604;DHT22;32708;51.212;6.788;2022-12-11T05:36:18;2.20;99.90
48604;DHT22;32708;51.212;6.788;2022-12-11T05:38:48;2.10;99.90
48604;DHT22;32708;51.212;6.788;2022-12-11T05:41:17;1.90;99.90
48604;DHT22;32708;51.212;6.788;2022-12-11T05:43:46;1.80;99.90
48604;DHT22;32708;51.212;6.788;2022-12-11T05:46:18;2.00;99.90
48604;DHT22;32708;51.212;6.788;2022-12-11T05:48:54;1.80;99.90
48604;DHT22;32708;51.212;6.788;2022-12-11T05:51:27;1.90;99.90
48604;DHT22;32708;51.212;6.788;2022-12-11T05:53:56;1.80;99.90
48604;DHT22;32708;51.212;6.788;2022-12-11T05:56:29;1.90;99.90
48604;DHT22;32708;51.212;6.788;2022-12-11T05:58:58;1.90;99.90
48604;DHT22;32708;51.212;6.788;2022-12-11T06:01:32;1.70;99.90
48604;DHT22;32708;51.212;6.788;2022-12-11T06:04:01;1.80;99.90
48604;DHT22;32708;51.212;6.788;2022-12-11T06:06:30;1.90;99.90
48604;DHT22;32708;51.212;6.788;2022-12-11T06:08:59;1.80;99.90
48604;DHT22;32708;51.212;6.788;2022-12-11T06:11:29;1.80;99.90
48604;DHT22;32708;51.212;6.788;2022-12-11T06:14:00;1.70;99.90
48604;DHT22;32708;51.212;6.788;2022-12-11T06:16:27;1.70;99.90
48604;DHT22;32708;51.212;6.788;2022-12-11T06:18:53;1.80;99.90
48604;DHT22;32708;51.212;6.788;2022-12-11T06:21:22;1.70;99.90
48604;DHT22;32708;51.212;6.788;2022-12-11T06:23:53;1.80;99.90
48604;DHT22;32708;51.212;6.788;2022-12-11T06:26:21;1.80;99.90
48604;DHT22;32708;51.212;6.788;2022-12-11T06:28:48;1.90;99.90
48604;DHT22;32708;51.212;6.788;2022-12-11T06:31:16;1.90;99.90
48604;DHT22;32708;51.212;6.788;2022-12-11T06:33:43;2.00;99.90
48604;DHT22;32708;51.212;6.788;2022-12-11T06:36:12;2.00;99.90
48604;DHT22;32708;51.212;6.788;2022-12-11T06:38:42;2.10;99.90
48604;DHT22;32708;51.212;6.788;2022-12-11T06:41:09;2.10;99.90
48604;DHT22;32708;51.212;6.788;2022-12-11T06:43:38;2.00;99.90
48604;DHT22;32708;51.212;6.788;2022-12-11T06:46:14;1.90;99.90
48604;DHT22;32708;51.212;6.788;2022-12-11T06:48:44;1.90;99.90
48604;DHT22;32708;51.212;6.788;2022-12-11T06:51:13;1.90;99.90
48604;DHT22;32708;51.212;6.788;2022-12-11T06:53:41;1.90;99.90
48604;DHT22;32708;51.212;6.788;2022-12-11T06:56:12;1.90;99.90
48604;DHT22;32708;51.212;6.788;2022-12-11T06:58:40;1.80;99.90
48604;DHT22;32708;51.212;6.788;2022-12-11T07:01:17;1.90;99.90
48604;DHT22;32708;51.212;6.788;2022-12-11T07:03:48;2.00;99.90
48604;DHT22;32708;51.212;6.788;2022-12-11T07:06:17;2.10;99.90
48604;DHT22;32708;51.212;6.788;2022-12-11T07:08:43;2.10;99.90
48604;DHT22;32708;51.212;6.788;2022-12-11T07:11:13;1.90;99.90
48604;DHT22;32708;51.212;6.788;2022-12-11T07:13:41;1.90;99.90
48604;DHT22;32708;51.212;6.788;2022-12-11T07:16:09;1.80;99.90
48604;DHT22;32708;51.212;6.788;2022-12-11T07:18:39;1.80;99.90
48604;DHT22;32708;51.212;6.788;2022-12-11T07:21:09;1.80;99.90
48604;DHT22;32708;51.212;6.788;2022-12-11T07:23:38;1.90;99.90
48604;DHT22;32708;51.212;6.788;2022-12-11T07:26:10;2.00;99.90
48604;DHT22;32708;51.212;6.788;2022-12-11T07:28:38;1.90;99.90
48604;DHT22;32708;51.212;6.788;2022-12-11T07:31:10;1.90;99.90
48604;DHT22;32708;51.212;6.788;2022-12-11T07:33:39;2.00;99.90
48604;DHT22;32708;51.212;6.788;2022-12-11T07:36:09;2.00;99.90
48604;DHT22;32708;51.212;6.788;2022-12-11T07:38:37;2.00;99.90
48604;DHT22;32708;51.212;6.788;2022-12-11T07:41:06;1.90;99.90
48604;DHT22;32708;51.212;6.788;2022-12-11T07:43:35;1.80;99.90
48604;DHT22;32708;51.212;6.788;2022-12-11T07:46:04;1.80;99.90
48604;DHT22;32708;51.212;6.788;2022-12-11T07:48:38;1.70;99.90
48604;DHT22;32708;51.212;6.788;2022-12-11T07:51:22;1.80;99.90
48604;DHT22;32708;51.212;6.788;2022-12-11T07:53:55;1.70;99.90
48604;DHT22;32708;51.212;6.788;2022-12-11T07:56:25;1.80;99.90
48604;DHT22;32708;51.212;6.788;2022-12-11T07:58:53;1.80;99.90
48604;DHT22;32708;51.212;6.788;2022-12-11T08:01:25;1.80;99.90
48604;DHT22;32708;51.212;6.788;2022-12-11T08:03:54;1.90;99.90
48604;DHT22;32708;51.212;6.788;2022-12-11T08:06:25;1.90;99.90
48604;DHT22;32708;51.212;6.788;2022-12-11T08:08:56;1.80;99.90
48604;DHT22;32708;51.212;6.788;2022-12-11T08:11:24;1.70;99.90
48604;DHT22;32708;51.212;6.788;2022-12-11T08:13:51;1.80;99.90
48604;DHT22;32708;51.212;6.788;2022-12-11T08:16:18;1.90;99.90
48604;DHT22;32708;51.212;6.788;2022-12-11T08:18:46;1.80;99.90
48604;DHT22;32708;51.212;6.788;2022-12-11T08:21:24;1.80;99.90
48604;DHT22;32708;51.212;6.788;2022-12-11T08:23:53;1.80;99.90
48604;DHT22;32708;51.212;6.788;2022-12-11T08:26:26;2.10;99.90
48604;DHT22;32708;51.212;6.788;2022-12-11T08:28:55;1.90;99.90
48604;DHT22;32708;51.212;6.788;2022-12-11T08:31:23;1.90;99.90
48604;DHT22;32708;51.212;6.788;2022-12-11T08:33:50;2.00;99.90
48604;DHT22;32708;51.212;6.788;2022-12-11T08:36:20;1.90;99.90
48604;DHT22;32708;51.212;6.788;2022-12-11T08:38:48;1.90;99.90
48604;DHT22;32708;51.212;6.788;2022-12-11T08:41:17;1.90;99.90
48604;DHT22;32708;51.212;6.788;2022-12-11T08:43:46;1.90;99.90
48604;DHT22;32708;51.212;6.788;2022-12-11T08:46:13;2.00;99.90
48604;DHT22;32708;51.212;6.788;2022-12-11T08:48:42;1.90;99.90
48604;DHT22;32708;51.212;6.788;2022-12-11T08:51:19;1.90;99.90
48604;DHT22;32708;51.212;6.788;2022-12-11T08:53:48;2.20;99.90
48604;DHT22;32708;51.212;6.788;2022-12-11T08:56:19;2.20;99.90
48604;DHT22;32708;51.212;6.788;2022-12-11T08:58:46;2.20;99.90
48604;DHT22;32708;51.212;6.788;2022-12-11T09:01:25;2.30;99.90
48604;DHT22;32708;51.212;6.788;2022-12-11T09:03:54;2.30;99.90
48604;DHT22;32708;51.212;6.788;2022-12-11T09:06:27;2.30;99.90
48604;DHT22;32708;51.212;6.788;2022-12-11T09:08:57;2.30;99.90
48604;DHT22;32708;51.212;6.788;2022-12-11T09:11:27;2.30;99.90
48604;DHT22;32708;51.212;6.788;2022-12-11T09:13:56;2.30;99.90
48604;DHT22;32708;51.212;6.788;2022-12-11T09:16:24;2.20;99.90
48604;DHT22;32708;51.212;6.788;2022-12-11T09:18:54;2.30;99.90
48604;DHT22;32708;51.212;6.788;2022-12-11T09:21:29;2.30;99.90
48604;DHT22;32708;51.212;6.788;2022-12-11T09:23:58;2.30;99.90
48604;DHT22;32708;51.212;6.788;2022-12-11T09:26:27;2.20;99.90
48604;DHT22;32708;51.212;6.788;2022-12-11T09:28:55;2.10;99.90
48604;DHT22;32708;51.212;6.788;2022-12-11T09:31:28;2.10;99.90
48604;DHT22;32708;51.212;6.788;2022-12-11T09:34:05;2.00;99.90
48604;DHT22;32708;51.212;6.788;2022-12-11T09:36:33;2.10;99.90
48604;DHT22;32708;51.212;6.788;2022-12-11T09:39:05;2.20;99.90
48604;DHT22;32708;51.212;6.788;2022-12-11T09:46:40;2.30;99.90
48604;DHT22;32708;51.212;6.788;2022-12-11T09:52:34;2.30;99.90
48604;DHT22;32708;51.212;6.788;2022-12-11T09:55:19;2.30;99.90
48604;DHT22;32708;51.212;6.788;2022-12-11T09:58:16;2.30;99.90
48604;DHT22;32708;51.212;6.788;2022-12-11T10:00:54;2.40;99.90
48604;DHT22;32708;51.212;6.788;2022-12-11T10:03:46;2.40;99.90
48604;DHT22;32708;51.212;6.788;2022-12-11T10:09:57;2.40;99.90
48604;DHT22;32708;51.212;6.788;2022-12-11T10:12:34;2.30;99.90
48604;DHT22;32708;51.212;6.788;2022-12-11T10:15:27;2.30;99.90
48604;DHT22;32708;51.212;6.788;2022-12-11T10:18:04;2.50;99.90
48604;DHT22;32708;51.212;6.788;2022-12-11T10:20:37;2.50;99.90
48604;DHT22;32708;51.212;6.788;2022-12-11T10:23:17;2.50;99.90
48604;DHT22;32708;51.212;6.788;2022-12-11T10:25:57;2.40;99.90
48604;DHT22;32708;51.212;6.788;2022-12-11T10:28:59;2.50;99.90
48604;DHT22;32708;51.212;6.788;2022-12-11T10:31:55;2.40;99.90
48604;DHT22;32708;51.212;6.788;2022-12-11T10:37:07;2.20;99.90
48604;DHT22;32708;51.212;6.788;2022-12-11T10:39:33;2.30;99.90
48604;DHT22;32708;51.212;6.788;2022-12-11T10:42:01;2.30;99.90
48604;DHT22;32708;51.212;6.788;2022-12-11T10:44:55;2.30;99.90
48604;DHT22;32708;51.212;6.788;2022-12-11T10:47:24;2.40;99.90
48604;DHT22;32708;51.212;6.788;2022-12-11T10:49:55;2.30;99.90
48604;DHT22;32708;51.212;6.788;2022-12-11T10:55:05;2.60;99.90
48604;DHT22;32708;51.212;6.788;2022-12-11T10:58:03;2.70;99.90
48604;DHT22;32708;51.212;6.788;2022-12-11T11:00:37;2.50;99.90
48604;DHT22;32708;51.212;6.788;2022-12-11T11:03:26;2.50;99.90
48604;DHT22;32708;51.212;6.788;2022-12-11T11:08:44;2.60;99.90
48604;DHT22;32708;51.212;6.788;2022-12-11T11:11:35;2.60;99.90
48604;DHT22;32708;51.212;6.788;2022-12-11T11:14:22;2.60;99.90
48604;DHT22;32708;51.212;6.788;2022-12-11T11:16:51;2.70;99.90
48604;DHT22;32708;51.212;6.788;2022-12-11T11:19:34;2.80;99.90
48604;DHT22;32708;51.212;6.788;2022-12-11T11:22:06;2.70;99.90
48604;DHT22;32708;51.212;6.788;2022-12-11T11:27:18;2.80;99.90
48604;DHT22;32708;51.212;6.788;2022-12-11T11:30:18;2.80;99.90
48604;DHT22;32708;51.212;6.788;2022-12-11T11:32:58;2.70;99.90
48604;DHT22;32708;51.212;6.788;2022-12-11T11:38:33;2.50;99.90
48604;DHT22;32708;51.212;6.788;2022-12-11T11:41:11;2.40;99.90
48604;DHT22;32708;51.212;6.788;2022-12-11T11:43:43;2.40;99.90
48604;DHT22;32708;51.212;6.788;2022-12-11T11:46:43;2.40;99.90
48604;DHT22;32708;51.212;6.788;2022-12-11T11:49:21;2.50;99.90
48604;DHT22;32708;51.212;6.788;2022-12-11T11:52:00;2.40;99.90
48604;DHT22;32708;51.212;6.788;2022-12-11T11:55:18;2.50;99.90
48604;DHT22;32708;51.212;6.788;2022-12-11T11:57:59;2.50;99.90
48604;DHT22;32708;51.212;6.788;2022-12-11T12:00:32;2.60;99.90
48604;DHT22;32708;51.212;6.788;2022-12-11T12:03:02;2.60;99.90
48604;DHT22;32708;51.212;6.788;2022-12-11T12:05:57;2.50;99.90
48604;DHT22;32708;51.212;6.788;2022-12-11T12:09:17;2.50;99.90
48604;DHT22;32708;51.212;6.788;2022-12-11T12:12:18;2.60;99.90
48604;DHT22;32708;51.212;6.788;2022-12-11T12:18:51;2.50;99.90
48604;DHT22;32708;51.212;6.788;2022-12-11T12:21:31;2.50;99.90
48604;DHT22;32708;51.212;6.788;2022-12-11T12:30:08;2.40;99.90
48604;DHT22;32708;51.212;6.788;2022-12-11T12:35:34;2.60;99.90
48604;DHT22;32708;51.212;6.788;2022-12-11T12:38:11;2.70;99.90
48604;DHT22;32708;51.212;6.788;2022-12-11T12:41:16;2.70;99.90
48604;DHT22;32708;51.212;6.788;2022-12-11T12:44:24;2.40;99.90
48604;DHT22;32708;51.212;6.788;2022-12-11T12:47:08;2.10;99.90
48604;DHT22;32708;51.212;6.788;2022-12-11T12:49:46;2.40;99.90
48604;DHT22;32708;51.212;6.788;2022-12-11T12:52:34;2.50;99.90
48604;DHT22;32708;51.212;6.788;2022-12-11T12:55:22;2.50;99.90
48604;DHT22;32708;51.212;6.788;2022-12-11T12:58:00;2.60;99.90
48604;DHT22;32708;51.212;6.788;2022-12-11T13:03:12;2.70;99.90
48604;DHT22;32708;51.212;6.788;2022-12-11T13:05:43;2.80;99.90
48604;DHT22;32708;51.212;6.788;2022-12-11T13:08:33;2.80;99.90
48604;DHT22;32708;51.212;6.788;2022-12-11T13:11:09;2.80;99.90
48604;DHT22;32708;51.212;6.788;2022-12-11T13:13:41;2.80;99.90
48604;DHT22;32708;51.212;6.788;2022-12-11T13:18:43;2.90;99.90
48604;DHT22;32708;51.212;6.788;2022-12-11T13:21:31;2.80;99.90
48604;DHT22;32708;51.212;6.788;2022-12-11T13:26:48;2.50;99.90
48604;DHT22;32708;51.212;6.788;2022-12-11T13:35:02;2.90;99.90
48604;DHT22;32708;51.212;6.788;2022-12-11T13:40:15;3.00;99.90
48604;DHT22;32708;51.212;6.788;2022-12-11T13:43:21;2.80;99.90
48604;DHT22;32708;51.212;6.788;2022-12-11T13:46:03;3.00;99.90
48604;DHT22;32708;51.212;6.788;2022-12-11T13:48:38;3.10;99.90
48604;DHT22;32708;51.212;6.788;2022-12-11T13:51:16;3.20;99.90
48604;DHT22;32708;51.212;6.788;2022-12-11T13:53:46;3.00;99.90
48604;DHT22;32708;51.212;6.788;2022-12-11T13:56:32;2.90;99.90
48604;DHT22;32708;51.212;6.788;2022-12-11T13:58:59;2.70;99.90
48604;DHT22;32708;51.212;6.788;2022-12-11T14:01:32;2.80;99.90
48604;DHT22;32708;51.212;6.788;2022-12-11T14:04:18;2.80;99.90
48604;DHT22;32708;51.212;6.788;2022-12-11T14:06:46;2.90;99.90
48604;DHT22;32708;51.212;6.788;2022-12-11T14:09:19;2.90;99.90
48604;DHT22;32708;51.212;6.788;2022-12-11T14:11:49;2.90;99.90
48604;DHT22;32708;51.212;6.788;2022-12-11T14:14:26;2.90;99.90
48604;DHT22;32708;51.212;6.788;2022-12-11T14:17:13;3.00;99.90
48604;DHT22;32708;51.212;6.788;2022-12-11T14:19:49;3.00;99.90
48604;DHT22;32708;51.212;6.788;2022-12-11T14:22:22;3.10;99.90
48604;DHT22;32708;51.212;6.788;2022-12-11T14:24:53;2.90;99.90
48604;DHT22;32708;51.212;6.788;2022-12-11T14:27:25;3.00;99.90
48604;DHT22;32708;51.212;6.788;2022-12-11T14:29:52;2.90;99.90
48604;DHT22;32708;51.212;6.788;2022-12-11T14:32:31;3.10;99.90
48604;DHT22;32708;51.212;6.788;2022-12-11T14:35:25;3.00;99.90
48604;DHT22;32708;51.212;6.788;2022-12-11T14:37:57;2.90;99.90
48604;DHT22;32708;51.212;6.788;2022-12-11T14:40:42;2.90;99.90
48604;DHT22;32708;51.212;6.788;2022-12-11T14:43:27;3.00;99.90
48604;DHT22;32708;51.212;6.788;2022-12-11T14:46:17;2.90;99.90
48604;DHT22;32708;51.212;6.788;2022-12-11T14:48:55;2.90;99.90
48604;DHT22;32708;51.212;6.788;2022-12-11T14:51:34;2.90;99.90
48604;DHT22;32708;51.212;6.788;2022-12-11T14:54:05;3.00;99.90
48604;DHT22;32708;51.212;6.788;2022-12-11T14:56:39;3.10;99.90
48604;DHT22;32708;51.212;6.788;2022-12-11T14:59:17;3.00;99.90
48604;DHT22;32708;51.212;6.788;2022-12-11T15:02:16;3.10;99.90
48604;DHT22;32708;51.212;6.788;2022-12-11T15:05:14;3.10;99.90
48604;DHT22;32708;51.212;6.788;2022-12-11T15:11:07;3.00;99.90
48604;DHT22;32708;51.212;6.788;2022-12-11T15:13:55;3.10;99.90
48604;DHT22;32708;51.212;6.788;2022-12-11T15:16:32;3.10;99.90
48604;DHT22;32708;51.212;6.788;2022-12-11T15:19:03;3.00;99.90
48604;DHT22;32708;51.212;6.788;2022-12-11T15:21:33;3.00;99.90
48604;DHT22;32708;51.212;6.788;2022-12-11T15:24:04;2.90;99.90
48604;DHT22;32708;51.212;6.788;2022-12-11T15:26:44;2.90;99.90
48604;DHT22;32708;51.212;6.788;2022-12-11T15:29:41;3.00;99.90
48604;DHT22;32708;51.212;6.788;2022-12-11T15:35:00;3.10;99.90
48604;DHT22;32708;51.212;6.788;2022-12-11T15:37:32;3.10;99.90
48604;DHT22;32708;51.212;6.788;2022-12-11T15:40:03;3.10;99.90
48604;DHT22;32708;51.212;6.788;2022-12-11T15:42:40;3.10;99.90
48604;DHT22;32708;51.212;6.788;2022-12-11T15:45:18;3.10;99.90
48604;DHT22;32708;51.212;6.788;2022-12-11T15:47:48;3.10;99.90
48604;DHT22;32708;51.212;6.788;2022-12-11T15:50:23;3.10;99.90
48604;DHT22;32708;51.212;6.788;2022-12-11T15:52:53;3.10;99.90
48604;DHT22;32708;51.212;6.788;2022-12-11T15:55:22;3.10;99.90
48604;DHT22;32708;51.212;6.788;2022-12-11T15:57:54;3.10;99.90
48604;DHT22;32708;51.212;6.788;2022-12-11T16:00:24;3.10;99.90
48604;DHT22;32708;51.212;6.788;2022-12-11T16:02:54;2.90;99.90
48604;DHT22;32708;51.212;6.788;2022-12-11T16:05:22;3.00;99.90
48604;DHT22;32708;51.212;6.788;2022-12-11T16:07:49;3.00;99.90
48604;DHT22;32708;51.212;6.788;2022-12-11T16:10:20;3.00;99.90
48604;DHT22;32708;51.212;6.788;2022-12-11T16:12:47;3.10;99.90
48604;DHT22;32708;51.212;6.788;2022-12-11T16:15:14;3.00;99.90
48604;DHT22;32708;51.212;6.788;2022-12-11T16:17:41;3.00;99.90
48604;DHT22;32708;51.212;6.788;2022-12-11T16:20:09;3.00;99.90
48604;DHT22;32708;51.212;6.788;2022-12-11T16:22:36;2.90;99.90
48604;DHT22;32708;51.212;6.788;2022-12-11T16:25:04;3.00;99.90
48604;DHT22;32708;51.212;6.788;2022-12-11T16:27:30;2.90;99.90
48604;DHT22;32708;51.212;6.788;2022-12-11T16:29:57;2.80;99.90
48604;DHT22;32708;51.212;6.788;2022-12-11T16:32:24;2.90;99.90
48604;DHT22;32708;51.212;6.788;2022-12-11T16:34:50;2.90;99.90
48604;DHT22;32708;51.212;6.788;2022-12-11T16:37:17;3.00;99.90
48604;DHT22;32708;51.212;6.788;2022-12-11T16:39:45;2.80;99.90
48604;DHT22;32708;51.212;6.788;2022-12-11T16:42:11;3.00;99.90
48604;DHT22;32708;51.212;6.788;2022-12-11T16:44:38;3.00;99.90
48604;DHT22;32708;51.212;6.788;2022-12-11T16:47:05;3.00;99.90
48604;DHT22;32708;51.212;6.788;2022-12-11T16:49:33;2.90;99.90
48604;DHT22;32708;51.212;6.788;2022-12-11T16:52:00;3.00;99.90
48604;DHT22;32708;51.212;6.788;2022-12-11T16:54:26;3.10;99.90
48604;DHT22;32708;51.212;6.788;2022-12-11T16:56:53;3.00;99.90
48604;DHT22;32708;51.212;6.788;2022-12-11T16:59:19;2.80;99.90
48604;DHT22;32708;51.212;6.788;2022-12-11T17:01:46;3.00;99.90
48604;DHT22;32708;51.212;6.788;2022-12-11T17:04:12;2.80;99.90
48604;DHT22;32708;51.212;6.788;2022-12-11T17:06:39;2.90;99.90
48604;DHT22;32708;51.212;6.788;2022-12-11T17:09:07;2.90;99.90
48604;DHT22;32708;51.212;6.788;2022-12-11T17:11:34;3.00;99.90
48604;DHT22;32708;51.212;6.788;2022-12-11T17:14:00;3.00;99.90
48604;DHT22;32708;51.212;6.788;2022-12-11T17:16:28;3.00;99.90
48604;DHT22;32708;51.212;6.788;2022-12-11T17:18:56;3.10;99.90
48604;DHT22;32708;51.212;6.788;2022-12-11T17:21:28;3.00;99.90
48604;DHT22;32708;51.212;6.788;2022-12-11T17:23:58;2.90;99.90
48604;DHT22;32708;51.212;6.788;2022-12-11T17:26:25;2.90;99.90
48604;DHT22;32708;51.212;6.788;2022-12-11T17:28:55;2.90;99.90
48604;DHT22;32708;51.212;6.788;2022-12-11T17:31:24;3.00;99.90
48604;DHT22;32708;51.212;6.788;2022-12-11T17:33:58;3.00;99.90
48604;DHT22;32708;51.212;6.788;2022-12-11T17:36:25;3.00;99.90
48604;DHT22;32708;51.212;6.788;2022-12-11T17:38:53;3.10;99.90
48604;DHT22;32708;51.212;6.788;2022-12-11T17:41:21;3.20;99.90
48604;DHT22;32708;51.212;6.788;2022-12-11T17:43:50;3.20;99.90